Sunday, October 22, 2017, 5:08 PM EDT
Back to Local

KPKB, Mid-ohio Valley Rgnl Airport

Location: Parkersburg, WV, United States Lat: 39.333
Local Time: 5:08 PM EDT (21:08 GMT) Lon: -81.45
Time Zone: US/Eastern Elev: 859 ft

Show me the last for .
Show Decoded

2017-10-22 16:53 METAR KPKB 222053Z 12003KT 10SM FEW020 24/09 A3019 RMK AO2 SLP220 FU CLD 8SW
                 MOVG NE 020 T02440094 56020 $ =
2017-10-22 15:53 METAR KPKB 221953Z VRB03KT 10SM FEW020 25/08 A3020 RMK AO2 SLP222 FU CLD 8SW
                 MOVG NE 020 T02500083 $ =
2017-10-22 14:53 METAR KPKB 221853Z 00000KT 10SM FEW020 25/09 A3022 RMK AO2 SLP230 FU CLD 8SW
                 MOVG N 020 T02500094 $ =
2017-10-22 13:53 METAR KPKB 221753Z 20004KT 10SM FEW020 24/10 A3025 RMK AO2 SLP241 FU FEW020 8SW
                 MOVG N T02390100 10239 20083 58021 $ =
2017-10-22 12:53 METAR KPKB 221653Z 22004KT 10SM FEW020 23/11 A3029 RMK AO2 SLP252 FU FEW020 8SW
                 MOVG E T02280106 $ =
2017-10-22 11:53 METAR KPKB 221553Z 22007KT 10SM FEW018 22/11 A3031 RMK AO2 SLP261 FU FEW018 8SW
                 MOVG E T02170111 $ =
2017-10-22 10:53 METAR KPKB 221453Z 19007KT 10SM FEW018 19/11 A3032 RMK AO2 SLP264 FU FEW018 8SW
                 MOVG N T01940111 51006 $ =
2017-10-22 09:53 METAR KPKB 221353Z COR 00000KT 7SM BCFG FEW018 16/13 A3032 RMK FU FEW018 8SW
                 MOVG NW AO2 SLP264 T01560128 $ =
2017-10-22 08:53 METAR KPKB 221253Z 00000KT 7SM BCFG FEW018 11/10 A3031 RMK AO2 SLP265 FU FEW018
                 8SW MOVG NW T01060100 $ =
2017-10-22 07:53 METAR KPKB 221153Z 00000KT 7SM BCFG FEW040 09/08 A3030 RMK AO2 SLP260 T00890083
                 10122 20083 51006 $ =
2017-10-22 06:53 METAR KPKB 221053Z 00000KT 7SM BCFG FEW040 09/09 A3029 RMK AO2 SLP257 T00940089
                 $ =
2017-10-22 06:33 METAR KPKB 221033Z AUTO 00000KT 1/4SM FG CLR 09/09 A3030 RMK AO2 T00940089 RVRNO
                 $ =
2017-10-22 06:26 METAR KPKB 221026Z AUTO 00000KT 1 1/4SM BR CLR 09/08 A3030 RMK AO2 T00940083 $ =
2017-10-22 06:24 METAR KPKB 221024Z AUTO 00000KT 3SM BR CLR 09/08 A3030 RMK AO2 T00940083 $ =
2017-10-22 06:20 METAR KPKB 221020Z AUTO 00000KT 1SM BR CLR 09/08 A3030 RMK AO2 T00890083 RVRNO $
                 =
2017-10-22 06:10 METAR KPKB 221010Z AUTO 00000KT 1/4SM FG CLR 09/08 A3030 RMK AO2 T00890078 RVRNO
                 $ =
2017-10-22 06:01 METAR KPKB 221001Z AUTO 00000KT 1 1/2SM BR CLR 09/08 A3029 RMK AO2 T00890083 $ =
2017-10-22 05:53 METAR KPKB 220953Z AUTO 00000KT 4SM BR CLR 10/09 A3029 RMK AO2 SLP255 T01000089
                 $ =
2017-10-22 05:45 METAR KPKB 220945Z AUTO 00000KT 4SM BR CLR 09/08 A3029 RMK AO2 T00940083 $ =
2017-10-22 05:35 METAR KPKB 220935Z AUTO 12004KT 2 1/2SM BR CLR 09/08 A3028 RMK AO2 VIS 1 1/4V5
                 T00940083 $ =
2017-10-22 04:53 METAR KPKB 220853Z AUTO 00000KT 9SM CLR 11/09 A3028 RMK AO2 SLP251 T01060094
                 53008 $ =
2017-10-22 03:53 METAR KPKB 220753Z AUTO 00000KT 7SM CLR 10/09 A3027 RMK AO2 SLP247 T01000094 $ =
2017-10-22 02:53 METAR KPKB 220653Z AUTO 00000KT 9SM CLR 11/09 A3026 RMK AO2 SLP243 T01060094 $ =
2017-10-22 01:53 METAR KPKB 220553Z AUTO 12003KT 3SM BR CLR 11/10 A3026 RMK AO2 SLP243 T01110100
                 10156 20106 58011 $ =
2017-10-22 00:53 METAR KPKB 220453Z AUTO 00000KT 4SM BR CLR 12/11 A3027 RMK AO2 SLP246 T01220111
                 402330061 $ =
2017-10-22 00:18 METAR KPKB 220418Z AUTO 11003KT 5SM BR CLR 12/12 A3027 RMK AO2 T01220117 $ =
2017-10-22 00:11 METAR KPKB 220411Z AUTO 13003KT 2 1/2SM BR CLR 12/12 A3028 RMK AO2 T01220117 $ =
2017-10-22 00:05 METAR KPKB 220405Z AUTO 00000KT 1/2SM FG CLR 12/12 A3028 RMK AO2 T01220117 RVRNO
                 $ =
2017-10-21 23:57 METAR KPKB 220357Z AUTO 00000KT 1 1/2SM BR CLR 12/12 A3028 RMK AO2 T01220117 $ =
2017-10-21 23:53 METAR KPKB 220353Z AUTO 00000KT 7SM CLR 13/12 A3028 RMK AO2 SLP253 T01280117 $ =
2017-10-21 22:53 METAR KPKB 220253Z 13003KT 6SM BR FEW020 13/12 A3029 RMK AO2 SLP255 FU CLD 8NM
                 SW MOVG NW 020 T01330122 56001 $ =
2017-10-21 21:53 METAR KPKB 220153Z 00000KT 7SM SCT025 14/13 A3029 RMK AO2 SLP258 FU CLD 8NM SW
                 MOVG N 025 T01390128 $ =
2017-10-21 20:53 METAR KPKB 220053Z 00000KT 7SM SCT025 14/13 A3029 RMK AO2 SLP257 FU CLD 8NM SW
                 MOVG N 025 T01390128 $ =
2017-10-21 19:53 METAR KPKB 212353Z 00000KT 9SM SCT025 16/14 A3029 RMK AO2 SLP258 FU CLD 8NM SW
                 MOVG N 025 T01560139 10233 20156 53004 $ =
2017-10-21 18:53 METAR KPKB 212253Z 00000KT 10SM SCT025 18/15 A3029 RMK AO2 SLP256 FU CLD 8SW
                 MOVG NE 025 T01780150 $ =
2017-10-21 17:53 METAR KPKB 212153Z 00000KT 9SM SCT025 20/15 A3028 RMK AO2 SLP253 FU CLD 8SW MOVG
                 E 025 T02000150 $ =

Support USWX by starting your Amazon purchase here.